| Date | Time | Temp. (oF) | Dew Point (oF) | Rel. Hum. (%) | Press. (in.) | Wind Dir. | Wind Speed (mph) | Hourly Rainfall (in.) |
|
|---|---|---|---|---|---|---|---|---|---|
| 1 | 02/25 | 00:00 | 30 | 24 | 80 | 30.01 | SSW | 0 | 0.00 |
| 2 | 02/24 | 23:00 | 31 | 24 | 76 | 30.03 | SW | 1 | 0.00 |
| 3 | 02/24 | 22:00 | 31 | 24 | 75 | 30.05 | S | 2 | 0.00 |
| 4 | 02/24 | 21:00 | 30 | 23 | 76 | 30.06 | SSW | 3 | 0.00 |
| 5 | 02/24 | 20:00 | 31 | 21 | 67 | 30.06 | SSW | 2 | 0.00 |
| 6 | 02/24 | 19:00 | 33 | 20 | 60 | 30.06 | SW | 0 | 0.00 |
| 7 | 02/24 | 18:00 | 36 | 20 | 52 | 30.06 | SW | 0 | 0.00 |
| 8 | 02/24 | 17:00 | 38 | 20 | 50 | 30.05 | SW | 3 | 0.00 |
| 9 | 02/24 | 16:00 | 39 | 22 | 51 | 30.06 | WSW | 0 | 0.00 |
| 10 | 02/24 | 15:00 | 39 | 22 | 52 | 30.09 | WSW | 8 | 0.00 |
| 11 | 02/24 | 14:00 | 38 | 23 | 55 | 30.12 | SW | 7 | 0.00 |
| 12 | 02/24 | 13:00 | 36 | 22 | 57 | 30.16 | NW | 5 | 0.00 |
| 13 | 02/24 | 12:00 | 35 | 23 | 62 | 30.19 | WSW | 5 | 0.00 |
| 14 | 02/24 | 11:00 | 33 | 20 | 61 | 30.22 | NNE | 4 | 0.00 |
| 15 | 02/24 | 10:00 | 31 | 20 | 66 | 30.23 | NW | 6 | 0.00 |
| 16 | 02/24 | 09:00 | 29 | 23 | 81 | 30.24 | SW | 3 | 0.00 |
| 17 | 02/24 | 08:00 | 21 | 20 | 99 | 30.24 | WNW | 1 | 0.00 |
| 18 | 02/24 | 07:00 | 18 | 17 | 99 | 30.22 | S | 0 | 0.00 |
| 19 | 02/24 | 06:00 | 19 | 18 | 100 | 30.20 | WSW | 2 | 0.00 |
| 20 | 02/24 | 05:00 | 20 | 19 | 99 | 30.17 | N | 0 | 0.00 |
| 21 | 02/24 | 04:00 | 19 | 18 | 98 | 30.16 | SSW | 0 | 0.00 |
| 22 | 02/24 | 03:00 | 22 | 21 | 96 | 30.16 | W | 2 | 0.00 |
| 23 | 02/24 | 02:00 | 24 | 22 | 92 | 30.16 | S | 0 | 0.00 |
| 24 | 02/24 | 01:00 | 24 | 23 | 98 | 30.14 | WNW | 2 | 0.00 |